Time;durP1;ratioP1;P1;durP2;ratioP2;P2;SDS_P1;SDS_P2;PMS_P1;PMS_P2;Temp;Humidity;BMP_temperature;BMP_pressure;BME280_temperature;BME280_humidity;BME280_pressure;Samples;Min_cycle;Max_cycle;Signal;HPM_P1;HPM_P2
2022/02/07 00:00:14;;;;;;;0.93;0.80;;;;;;;3.72;81.10;99076.72;5029783;28;20035;-23
2022/02/07 00:05:27;;;;;;;2.00;0.73;;;;;;;3.72;80.40;99081.94;5027912;28;20061;-23
2022/02/07 00:07:54;;;;;;;1.05;0.85;;;;;;;3.71;80.78;99083.66;5026182;28;20033;-23
2022/02/07 00:10:20;;;;;;;2.60;1.05;;;;;;;3.70;80.09;99089.75;5028475;28;20087;-21
2022/02/07 00:12:46;;;;;;;2.92;0.80;;;;;;;3.70;80.45;99088.91;5025567;28;20036;-24
2022/02/07 00:15:16;;;;;;;1.27;0.80;;;;;;;3.67;80.84;99095.00;5028490;28;20092;-23
2022/02/07 00:17:42;;;;;;;3.97;0.95;;;;;;;3.68;80.48;99091.53;5027675;28;20492;-23
2022/02/07 00:20:13;;;;;;;1.02;0.80;;;;;;;3.67;80.45;99095.00;5027252;28;20033;-23
2022/02/07 00:22:39;;;;;;;1.33;0.90;;;;;;;3.63;79.57;99093.28;5027790;28;20037;-20
2022/02/07 00:25:06;;;;;;;5.85;1.60;;;;;;;3.63;79.94;99093.28;5030071;28;20029;-24
2022/02/07 00:27:31;;;;;;;3.53;1.10;;;;;;;3.63;80.21;99098.50;5029133;28;20025;-23
2022/02/07 00:29:57;;;;;;;4.18;0.90;;;;;;;3.58;79.86;99098.53;5028339;28;20379;-22
2022/02/07 00:32:23;;;;;;;3.05;1.10;;;;;;;3.60;79.99;99119.38;5027461;28;20051;-23
2022/02/07 00:34:49;;;;;;;3.75;1.00;;;;;;;3.60;80.30;99119.38;5028201;28;20025;-23
2022/02/07 00:37:15;;;;;;;1.35;0.80;;;;;;;3.59;80.37;99128.06;5028594;28;20025;-23
2022/02/07 00:39:50;;;;;;;3.05;1.02;;;;;;;3.57;80.29;99135.91;5026489;28;20021;-23
2022/02/07 00:42:53;;;;;;;3.30;1.67;;;;;;;3.56;80.10;99142.00;5027273;28;20079;-24
2022/02/07 00:45:24;;;;;;;2.15;1.25;;;;;;;3.54;79.68;99155.91;5025379;28;20433;-23
2022/02/07 00:47:49;;;;;;;1.48;1.15;;;;;;;3.49;78.80;99176.78;5024931;28;20029;-23
2022/02/07 00:50:15;;;;;;;0.90;0.90;;;;;;;3.49;78.55;99168.09;5027906;28;20063;-23
2022/02/07 00:52:41;;;;;;;3.92;0.80;;;;;;;3.46;78.78;99198.53;5027975;28;20112;-22
2022/02/07 00:55:07;;;;;;;1.05;0.65;;;;;;;3.44;79.30;99196.81;5028238;28;20470;-23
2022/02/07 00:57:33;;;;;;;2.30;0.77;;;;;;;3.38;78.89;99222.88;5029010;28;20030;-24
2022/02/07 00:59:59;;;;;;;2.00;0.80;;;;;;;3.33;79.10;99207.25;5034476;28;20037;-23
2022/02/07 01:02:25;;;;;;;1.98;0.85;;;;;;;3.33;79.47;99204.63;5029316;28;20025;-23
2022/02/07 01:04:50;;;;;;;2.17;1.33;;;;;;;3.30;79.44;99213.34;5033794;28;20415;-24
2022/02/07 01:07:16;;;;;;;1.40;1.25;;;;;;;3.28;79.26;99209.00;5032740;28;20083;-23
2022/02/07 01:09:46;;;;;;;1.85;0.60;;;;;;;3.27;79.45;99202.91;5033104;28;20061;-23
2022/02/07 01:12:22;;;;;;;1.20;0.82;;;;;;;3.22;79.69;99191.66;5032390;28;20129;-23
2022/02/07 01:14:58;;;;;;;2.45;0.73;;;;;;;3.21;79.27;99206.41;5031221;28;20434;-24
2022/02/07 01:20:44;;;;;;;2.08;0.70;;;;;;;3.18;79.52;99226.41;5032966;28;20021;-23
2022/02/07 01:23:15;;;;;;;1.75;0.80;;;;;;;3.14;79.41;99230.75;5032888;28;20029;-24
2022/02/07 01:55:48;;;;;;;1.17;0.75;;;;;;;2.92;79.63;99298.50;5034471;28;20041;-23
2022/02/07 01:58:14;;;;;;;3.08;0.93;;;;;;;2.90;79.61;99310.66;5032238;28;20025;-24
2022/02/07 02:00:42;;;;;;;1.40;0.80;;;;;;;2.88;79.65;99315.00;5034298;28;20563;-23
2022/02/07 02:03:08;;;;;;;0.75;0.60;;;;;;;2.86;79.25;99321.94;5033761;28;20028;-21
2022/02/07 02:05:37;;;;;;;2.40;0.63;;;;;;;2.82;79.04;99333.22;5032540;28;20029;-24
2022/02/07 02:08:07;;;;;;;2.25;0.70;;;;;;;2.82;78.94;99360.13;5033591;28;20021;-23
2022/02/07 02:10:34;;;;;;;1.35;0.80;;;;;;;2.80;79.32;99356.66;5031882;28;20497;-23
2022/02/07 02:13:16;;;;;;;0.85;0.70;;;;;;;2.75;79.07;99366.19;5031025;28;20505;-24
2022/02/07 02:15:50;;;;;;;1.45;0.80;;;;;;;2.71;78.98;99374.88;5032054;28;20507;-23
2022/02/07 02:46:41;;;;;;;4.18;1.65;;;;;;;2.52;78.74;99465.06;5019836;28;20048;-23
2022/02/07 02:49:07;;;;;;;5.70;1.15;;;;;;;2.50;78.20;99479.81;5030703;28;20393;-23
2022/02/07 02:51:33;;;;;;;2.35;0.80;;;;;;;2.48;78.33;99481.53;5029897;28;20025;-23
2022/02/07 02:53:59;;;;;;;3.67;1.17;;;;;;;2.49;78.44;99496.25;5028168;28;20382;-23
2022/02/07 02:56:25;;;;;;;3.65;1.00;;;;;;;2.41;77.70;99488.44;5029328;28;20091;-23
2022/02/07 02:58:51;;;;;;;3.35;0.98;;;;;;;2.43;78.60;99503.19;5029874;28;20367;-23
2022/02/07 03:01:17;;;;;;;2.13;1.10;;;;;;;2.42;78.45;99513.59;5027193;28;20079;-24
2022/02/07 03:03:43;;;;;;;2.28;1.52;;;;;;;2.40;78.18;99523.13;5026841;28;20021;-23
2022/02/07 03:06:09;;;;;;;2.40;1.30;;;;;;;2.40;78.31;99521.38;5030537;28;20025;-24
2022/02/07 03:08:35;;;;;;;4.28;1.17;;;;;;;2.38;78.49;99528.34;5028267;28;20446;-23
2022/02/07 03:11:09;;;;;;;1.80;1.52;;;;;;;2.36;78.62;99530.03;5029284;28;20037;-24
2022/02/07 03:16:37;;;;;;;5.40;1.95;;;;;;;2.34;78.84;99550.00;5026465;28;20025;-23
2022/02/07 03:19:10;;;;;;;2.95;1.17;;;;;;;2.32;79.09;99551.69;5028127;28;20123;-23
2022/02/07 03:21:37;;;;;;;1.35;1.05;;;;;;;2.33;79.07;99563.00;5027598;28;20397;-23
2022/02/07 03:24:03;;;;;;;4.45;1.25;;;;;;;2.30;79.28;99566.41;5026747;28;20029;-23
2022/02/07 03:26:36;;;;;;;5.40;1.27;;;;;;;2.26;78.66;99583.75;5026849;28;20041;-24
2022/02/07 03:29:02;;;;;;;2.83;1.10;;;;;;;2.24;78.65;99580.28;5027094;28;20032;-24
2022/02/07 03:31:28;;;;;;;2.25;1.10;;;;;;;2.22;78.29;99592.41;5025898;28;20022;-24
2022/02/07 03:33:53;;;;;;;8.55;1.60;;;;;;;2.22;78.35;99599.31;5026226;28;20481;-23
2022/02/07 03:36:19;;;;;;;5.13;1.50;;;;;;;2.22;78.26;99620.13;5026511;28;20029;-24
2022/02/07 03:38:46;;;;;;;1.42;1.00;;;;;;;2.18;78.43;99625.34;5027054;28;20041;-24
2022/02/07 03:41:12;;;;;;;6.78;1.30;;;;;;;2.18;78.12;99635.75;5028367;28;20017;-23
2022/02/07 03:43:37;;;;;;;5.45;1.23;;;;;;;2.17;78.46;99641.78;5026320;28;20021;-24
2022/02/07 03:46:04;;;;;;;3.83;1.40;;;;;;;2.17;77.94;99654.78;5023057;28;20068;-24
2022/02/07 03:48:31;;;;;;;3.97;1.30;;;;;;;2.16;78.26;99667.78;5022752;28;20397;-23
2022/02/07 03:50:57;;;;;;;1.58;1.10;;;;;;;2.16;77.90;99675.59;5027311;28;20505;-23
2022/02/07 03:53:23;;;;;;;5.28;1.60;;;;;;;2.12;78.35;99673.81;5030415;28;20040;-23
2022/02/07 03:55:50;;;;;;;4.07;1.15;;;;;;;2.11;78.52;99693.78;5028307;28;20033;-24
2022/02/07 03:58:20;;;;;;;6.60;1.92;;;;;;;2.13;78.63;99707.66;5022096;28;20035;-24
2022/02/07 04:00:51;;;;;;;1.67;1.13;;;;;;;2.13;78.77;99706.81;5024625;28;20179;-23
2022/02/07 04:03:20;;;;;;;3.90;1.17;;;;;;;2.12;78.85;99708.53;5027164;28;20650;-23
2022/02/07 04:05:50;;;;;;;4.75;1.08;;;;;;;2.11;78.95;99711.09;5025623;28;20104;-24
2022/02/07 04:08:17;;;;;;;7.00;1.30;;;;;;;2.09;79.09;99716.28;5028195;28;20036;-24
2022/02/07 04:11:33;;;;;;;6.70;1.52;;;;;;;2.12;79.02;99723.25;5028535;28;20025;-23
2022/02/07 04:13:35;;;;;;;4.63;1.10;;;;;;;2.12;79.57;99720.66;5027883;28;20053;-24
2022/02/07 04:16:03;;;;;;;4.22;1.00;;;;;;;2.13;79.44;99718.06;5028325;28;20056;-23
2022/02/07 04:18:46;;;;;;;5.65;1.35;;;;;;;2.12;79.04;99737.16;5027986;28;20026;-24
2022/02/07 04:21:12;;;;;;;4.15;1.15;;;;;;;2.13;78.90;99743.22;5027373;28;20162;-23
2022/02/07 04:23:37;;;;;;;3.72;0.90;;;;;;;2.13;79.41;99754.50;5026366;28;20121;-24
2022/02/07 04:26:03;;;;;;;5.47;1.48;;;;;;;2.12;79.47;99762.28;5027569;28;20158;-24
2022/02/07 04:28:29;;;;;;;4.38;1.40;;;;;;;2.10;79.23;99758.81;5027093;28;20036;-23
2022/02/07 04:30:55;;;;;;;4.78;1.30;;;;;;;2.12;78.78;99770.97;5026095;28;20037;-24
2022/02/07 04:33:21;;;;;;;5.05;1.08;;;;;;;2.12;79.00;99781.38;5028343;28;20029;-24
2022/02/07 04:35:46;;;;;;;4.45;1.00;;;;;;;2.11;78.68;99781.34;5027210;28;20028;-23
2022/02/07 04:38:12;;;;;;;5.60;1.33;;;;;;;2.09;78.96;99777.84;5027551;28;20048;-24
2022/02/07 04:40:38;;;;;;;3.70;1.20;;;;;;;2.11;78.92;99786.56;5026446;28;20485;-23
2022/02/07 04:43:05;;;;;;;3.10;1.02;;;;;;;2.12;78.98;99794.38;5026232;28;20021;-23
2022/02/07 04:45:46;;;;;;;5.18;0.93;;;;;;;2.12;78.89;99804.78;5024415;28;20513;-22
2022/02/07 04:59:17;;;;;;;3.13;1.17;;;;;;;2.13;78.62;99839.50;5027995;28;20036;-24
2022/02/07 05:04:23;;;;;;;2.88;1.48;;;;;;;2.13;78.47;99842.94;5028480;28;20276;-24
2022/02/07 05:15:00;;;;;;;2.70;0.90;;;;;;;2.11;78.88;99864.59;5028447;28;20078;-23
2022/02/07 05:17:27;;;;;;;1.95;1.52;;;;;;;2.11;78.92;99875.88;5029041;28;20038;-24
2022/02/07 05:19:53;;;;;;;4.32;2.28;;;;;;;2.11;79.34;99872.41;5027252;28;20037;-23
2022/02/07 05:22:18;;;;;;;5.05;1.20;;;;;;;2.09;78.94;99911.41;5028441;28;20059;-24
2022/02/07 05:24:44;;;;;;;1.15;0.90;;;;;;;2.06;79.04;99903.56;5025727;28;20070;-24
2022/02/07 05:27:10;;;;;;;3.63;1.08;;;;;;;2.08;78.97;99914.88;5027757;28;20017;-23
2022/02/07 05:29:36;;;;;;;2.15;1.15;;;;;;;2.07;78.99;99920.94;5027364;28;20025;-24
2022/02/07 05:32:02;;;;;;;3.47;0.93;;;;;;;2.07;78.91;99933.94;5028204;28;20079;-23
2022/02/07 05:34:28;;;;;;;3.72;1.20;;;;;;;2.08;79.31;99938.28;5028341;28;20112;-24
2022/02/07 05:36:57;;;;;;;3.85;1.33;;;;;;;2.07;79.12;99943.47;5027197;28;20100;-24
2022/02/07 05:39:25;;;;;;;1.65;1.15;;;;;;;2.04;79.18;99944.31;5024162;28;20485;-24
2022/02/07 05:41:51;;;;;;;4.38;1.52;;;;;;;2.07;78.91;99957.34;5025880;28;20144;-24
2022/02/07 05:44:17;;;;;;;3.33;0.80;;;;;;;2.07;79.21;99966.88;5029180;28;20026;-24
2022/02/07 05:46:43;;;;;;;0.95;0.90;;;;;;;2.06;79.02;99971.19;5032624;28;20029;-23
2022/02/07 05:49:08;;;;;;;2.72;0.77;;;;;;;2.06;79.42;99984.19;5031899;28;20478;-23
2022/02/07 05:51:34;;;;;;;2.10;0.80;;;;;;;2.06;79.01;99997.22;5032290;28;20497;-24
2022/02/07 05:54:00;;;;;;;4.28;1.10;;;;;;;2.01;79.30;99991.06;5031768;28;20493;-24
2022/02/07 05:56:26;;;;;;;1.95;0.73;;;;;;;2.07;79.17;100004.19;5031543;28;20489;-23
2022/02/07 05:58:51;;;;;;;2.13;0.98;;;;;;;2.07;79.42;100025.00;5030688;28;20412;-23
2022/02/07 06:01:17;;;;;;;2.92;1.00;;;;;;;2.06;79.55;100018.03;5031612;28;20025;-23
2022/02/07 06:03:43;;;;;;;3.90;1.33;;;;;;;2.04;79.67;100019.75;5031495;28;20075;-24
2022/02/07 06:06:09;;;;;;;4.88;0.95;;;;;;;2.06;79.78;100033.63;5031443;28;20021;-23
2022/02/07 06:08:35;;;;;;;2.00;1.20;;;;;;;2.05;79.67;100043.19;5029457;28;20022;-23
2022/02/07 06:11:02;;;;;;;2.80;1.15;;;;;;;2.08;79.86;100068.38;5028675;28;20108;-23
2022/02/07 06:13:27;;;;;;;3.40;1.25;;;;;;;2.08;80.52;100081.38;5026901;28;20448;-24
2022/02/07 06:15:53;;;;;;;3.45;0.95;;;;;;;2.08;81.59;100083.97;5032026;28;20026;-23
2022/02/07 06:18:20;;;;;;;4.93;2.13;;;;;;;2.05;81.22;100086.50;5030626;28;20021;-24
2022/02/07 06:20:48;;;;;;;4.10;1.23;;;;;;;2.08;81.25;100083.97;5030788;28;20068;-23
2022/02/07 06:23:14;;;;;;;4.57;1.15;;;;;;;2.07;81.23;100090.03;5029461;28;20041;-24
2022/02/07 06:25:40;;;;;;;4.65;1.02;;;;;;;2.07;81.29;100091.75;5031807;28;20500;-23
2022/02/07 06:28:06;;;;;;;3.83;0.88;;;;;;;2.04;81.42;100089.97;5032116;28;20436;-24
2022/02/07 06:30:32;;;;;;;1.90;0.80;;;;;;;2.04;81.35;100085.63;5029889;28;20108;-23
2022/02/07 06:32:58;;;;;;;1.38;0.88;;;;;;;2.04;80.96;100098.63;5030844;28;20033;-22
2022/02/07 06:35:23;;;;;;;3.53;1.05;;;;;;;2.02;81.37;100104.66;5031460;28;20490;-24
2022/02/07 06:37:51;;;;;;;5.30;1.17;;;;;;;2.02;81.36;100108.16;5031300;28;20025;-23
2022/02/07 06:40:17;;;;;;;3.03;0.80;;;;;;;2.03;81.32;100122.03;5030992;28;20024;-23
2022/02/07 06:42:43;;;;;;;5.47;1.02;;;;;;;2.00;81.45;100133.25;5030564;28;20470;-24
2022/02/07 06:45:09;;;;;;;3.95;3.22;;;;;;;2.01;81.63;100149.75;5031680;28;20045;-23
2022/02/07 06:47:35;;;;;;;3.75;1.63;;;;;;;2.00;81.66;100158.41;5031209;28;20036;-24
2022/02/07 06:50:01;;;;;;;1.85;0.88;;;;;;;1.99;81.85;100169.66;5031452;28;20017;-23
2022/02/07 06:52:26;;;;;;;3.58;1.30;;;;;;;1.99;81.82;100164.44;5029268;28;20033;-22
2022/02/07 06:54:52;;;;;;;2.10;0.90;;;;;;;1.98;81.85;100180.91;5030893;28;20024;-22
2022/02/07 06:57:21;;;;;;;2.63;1.05;;;;;;;1.95;81.81;100180.84;5029755;28;20021;-24
2022/02/07 06:59:48;;;;;;;1.70;0.85;;;;;;;1.91;82.26;100185.97;5029282;28;20412;-22
2022/02/07 07:02:14;;;;;;;5.03;1.23;;;;;;;1.95;82.18;100218.16;5030229;28;20461;-23
2022/02/07 07:04:39;;;;;;;1.77;0.80;;;;;;;1.95;82.44;100222.47;5030492;28;20080;-24
2022/02/07 07:07:05;;;;;;;1.55;1.08;;;;;;;1.94;82.45;100220.72;5030313;28;20028;-23
2022/02/07 07:09:34;;;;;;;3.72;1.50;;;;;;;1.92;82.52;100223.28;5030657;28;20417;-24
2022/02/07 07:12:05;;;;;;;1.35;1.10;;;;;;;1.91;82.73;100232.81;5030688;28;20457;-24
2022/02/07 07:14:42;;;;;;;2.15;1.63;;;;;;;1.93;82.87;100232.84;5028877;28;20425;-24
2022/02/07 07:17:08;;;;;;;2.55;1.77;;;;;;;1.93;82.71;100240.63;5029696;28;20474;-23
2022/02/07 07:19:35;;;;;;;4.70;1.85;;;;;;;1.94;83.00;100236.31;5032082;28;20037;-22
2022/02/07 07:22:00;;;;;;;3.50;1.80;;;;;;;1.94;82.69;100246.72;5030343;28;20049;-23
2022/02/07 07:24:27;;;;;;;4.13;1.50;;;;;;;1.97;82.85;100260.66;5030138;28;20489;-23
2022/02/07 07:26:52;;;;;;;4.72;1.48;;;;;;;1.97;82.54;100268.47;5030032;28;20096;-23
2022/02/07 07:29:24;;;;;;;4.80;1.77;;;;;;;1.92;82.69;100258.00;5030643;28;20391;-23
2022/02/07 07:31:55;;;;;;;4.85;1.63;;;;;;;1.99;82.66;100271.97;5030164;28;20018;-22
2022/02/07 07:34:22;;;;;;;2.13;1.42;;;;;;;2.00;82.45;100278.06;5027934;28;20712;-23
2022/02/07 07:36:48;;;;;;;2.45;1.40;;;;;;;1.96;82.36;100268.47;5030144;28;20045;-24
2022/02/07 07:39:15;;;;;;;3.92;1.65;;;;;;;2.00;82.54;100281.53;5029349;28;20501;-24
2022/02/07 07:41:42;;;;;;;6.03;1.58;;;;;;;2.02;82.41;100291.97;5030093;28;20385;-23
2022/02/07 07:44:08;;;;;;;2.97;1.38;;;;;;;2.03;82.63;100298.91;5030356;28;20036;-23
2022/02/07 07:46:34;;;;;;;2.72;1.17;;;;;;;2.02;82.72;100307.56;5029838;28;20117;-23
2022/02/07 07:49:14;;;;;;;3.92;1.73;;;;;;;2.06;83.16;100314.59;5029859;28;20067;-24
2022/02/07 07:51:57;;;;;;;5.35;1.88;;;;;;;2.06;82.74;100319.81;5029688;28;20021;-25
2022/02/07 07:54:44;;;;;;;5.18;1.70;;;;;;;2.08;82.47;100325.94;5029201;28;20033;-22
2022/02/07 08:02:39;;;;;;;7.25;2.05;;;;;;;2.12;82.95;100335.53;5031112;28;20083;-23
2022/02/07 08:05:15;;;;;;;8.02;2.42;;;;;;;2.16;83.20;100349.47;5029156;28;20033;-23
2022/02/07 08:07:42;;;;;;;4.85;1.80;;;;;;;2.18;83.13;100355.59;5029413;28;20036;-23
2022/02/07 08:10:46;;;;;;;3.83;2.40;;;;;;;2.20;83.71;100348.69;5031305;28;20032;-23
2022/02/07 08:12:54;;;;;;;6.45;3.03;;;;;;;2.22;83.95;100354.81;5026303;28;20408;-23
2022/02/07 08:15:20;;;;;;;6.97;3.00;;;;;;;2.28;83.64;100367.97;5029462;28;20025;-23
2022/02/07 08:17:46;;;;;;;8.32;3.08;;;;;;;2.30;84.07;100375.78;5029441;28;20090;-23
2022/02/07 08:20:12;;;;;;;9.13;3.30;;;;;;;2.33;83.84;100380.19;5029218;28;20021;-23
2022/02/07 08:22:38;;;;;;;12.20;4.55;;;;;;;2.34;83.74;100375.03;5030054;28;20025;-23
2022/02/07 08:25:04;;;;;;;9.95;3.92;;;;;;;2.39;83.97;100375.09;5029289;28;20075;-24
2022/02/07 08:27:31;;;;;;;12.65;3.92;;;;;;;2.42;83.48;100386.47;5028991;28;20241;-24
2022/02/07 08:29:58;;;;;;;6.18;3.38;;;;;;;2.44;83.78;100389.94;5029126;28;20033;-24
2022/02/07 08:32:24;;;;;;;6.93;3.20;;;;;;;2.49;83.88;100403.06;5028567;28;20087;-24
2022/02/07 08:34:50;;;;;;;13.95;2.92;;;;;;;2.52;83.72;100410.06;5026316;28;20507;-24
2022/02/07 08:37:16;;;;;;;10.88;2.88;;;;;;;2.54;83.56;100416.19;5028743;28;20025;-24
2022/02/07 08:39:43;;;;;;;7.15;3.22;;;;;;;2.55;83.73;100418.81;5029048;28;20025;-24
2022/02/07 08:42:10;;;;;;;10.02;3.10;;;;;;;2.59;84.15;100427.56;5029050;28;20066;-24
2022/02/07 08:44:37;;;;;;;4.72;2.13;;;;;;;2.60;83.67;100424.09;5026816;28;20029;-23
2022/02/07 08:47:03;;;;;;;9.50;2.88;;;;;;;2.64;83.56;100433.72;5028288;28;20021;-24
2022/02/07 08:49:29;;;;;;;10.13;3.47;;;;;;;2.66;83.75;100434.66;5029381;28;20036;-23
2022/02/07 08:51:55;;;;;;;10.73;3.08;;;;;;;2.69;84.05;100441.63;5025788;28;20030;-24
2022/02/07 08:54:25;;;;;;;16.02;2.58;;;;;;;2.72;83.76;100446.03;5028806;28;20036;-24
2022/02/07 08:57:10;;;;;;;6.85;2.90;;;;;;;2.74;84.16;100450.44;5028786;28;20314;-23
2022/02/07 08:59:54;;;;;;;12.13;2.50;;;;;;;2.78;83.90;100477.41;5028460;28;20025;-24
2022/02/07 09:02:38;;;;;;;5.97;2.90;;;;;;;2.80;83.89;100453.13;5027271;28;20026;-23
2022/02/07 09:07:45;;;;;;;5.90;2.20;;;;;;;2.87;83.57;100490.59;5027347;28;20108;-23
2022/02/07 09:10:11;;;;;;;4.50;2.15;;;;;;;2.88;83.87;100487.16;5025728;28;20026;-23
2022/02/07 09:12:40;;;;;;;11.90;2.75;;;;;;;2.90;83.71;100493.28;5027740;28;20074;-23
2022/02/07 09:15:28;;;;;;;3.20;2.47;;;;;;;2.95;83.29;100493.38;5028782;28;20017;-23
2022/02/07 09:17:51;;;;;;;5.90;3.35;;;;;;;3.00;83.19;100501.28;5027575;28;20091;-23
2022/02/07 09:20:17;;;;;;;11.10;4.72;;;;;;;3.03;83.25;100499.59;5029736;28;20369;-22
2022/02/07 09:22:43;;;;;;;11.23;4.55;;;;;;;3.02;83.10;100510.00;5032793;28;20500;-24
2022/02/07 09:25:09;;;;;;;5.65;3.03;;;;;;;3.11;83.19;100517.13;5032582;28;20433;-23
2022/02/07 09:27:36;;;;;;;6.70;3.08;;;;;;;3.16;83.29;100507.66;5032471;28;20446;-23
2022/02/07 09:30:06;;;;;;;8.18;2.88;;;;;;;3.18;83.20;100514.66;5034071;28;20033;-23
2022/02/07 09:32:33;;;;;;;9.43;2.35;;;;;;;3.23;83.05;100517.34;5030885;28;20032;-24
2022/02/07 09:34:59;;;;;;;5.60;3.15;;;;;;;3.27;83.25;100520.91;5029128;28;20430;-24
2022/02/07 09:37:25;;;;;;;5.45;2.47;;;;;;;3.29;83.44;100522.69;5032747;28;20068;-23
2022/02/07 09:39:51;;;;;;;8.95;2.72;;;;;;;3.35;83.54;100516.69;5032244;28;20017;-23
2022/02/07 09:42:17;;;;;;;8.57;2.60;;;;;;;3.35;83.24;100516.69;5032158;28;20053;-24
2022/02/07 09:44:49;;;;;;;13.90;4.25;;;;;;;3.44;83.63;100529.03;5032303;28;20032;-24
2022/02/07 09:47:16;;;;;;;12.48;5.18;;;;;;;3.52;83.64;100539.56;5032537;28;20025;-24
2022/02/07 09:49:46;;;;;;;14.63;5.00;;;;;;;3.56;83.52;100546.59;5032251;28;20550;-23
2022/02/07 09:52:12;;;;;;;10.10;4.50;;;;;;;3.62;83.04;100551.03;5032023;28;20025;-23
2022/02/07 09:54:39;;;;;;;10.98;3.63;;;;;;;3.71;83.46;100567.72;5032134;28;20075;-23
2022/02/07 09:57:05;;;;;;;6.40;2.97;;;;;;;3.71;82.77;100572.09;5031582;28;20494;-24
2022/02/07 09:59:32;;;;;;;15.77;2.92;;;;;;;3.82;82.91;100580.09;5031951;28;20140;-24
2022/02/07 10:02:02;;;;;;;12.30;3.42;;;;;;;3.88;82.87;100580.22;5031789;28;20036;-23
2022/02/07 10:04:35;;;;;;;9.20;2.28;;;;;;;3.95;82.88;100597.72;5032200;28;20029;-23
2022/02/07 10:07:17;;;;;;;8.55;2.63;;;;;;;4.03;82.86;100610.03;5031571;28;20108;-23
2022/02/07 10:09:51;;;;;;;;;;;;;;;4.10;81.94;100612.75;5032442;28;20512;-24
2022/02/07 10:18:07;;;;;;;19.00;7.45;;;;;;;4.27;81.66;100640.00;5029588;28;20021;-23
2022/02/07 10:20:54;;;;;;;23.95;11.57;;;;;;;4.37;81.80;100641.91;5029552;28;20029;-23
2022/02/07 10:35:04;;;;;;;9.43;2.80;;;;;;;4.65;79.79;100668.47;5029474;28;20102;-24
2022/02/07 10:40:42;;;;;;;11.52;3.00;;;;;;;4.82;79.53;100705.31;5031496;28;19916;-24
2022/02/07 10:48:33;;;;;;;8.52;2.97;;;;;;;4.98;79.26;100735.19;5029344;28;20025;-23
2022/02/07 10:51:25;;;;;;;12.10;2.67;;;;;;;5.01;79.11;100735.19;5027395;28;20362;-23
2022/02/07 10:53:58;;;;;;;9.55;3.00;;;;;;;5.05;79.16;100756.16;5031306;28;20033;-23
2022/02/07 10:56:37;;;;;;;10.23;2.60;;;;;;;5.10;79.69;100759.75;5031541;28;20366;-23
2022/02/07 10:59:07;;;;;;;15.27;4.47;;;;;;;5.20;79.04;100766.84;5028820;28;20036;-23
2022/02/07 11:04:28;;;;;;;15.25;4.22;;;;;;;5.25;78.54;100759.97;5031327;28;20489;-24
2022/02/07 11:06:59;;;;;;;5.75;2.22;;;;;;;5.34;78.51;100800.19;5030600;28;20112;-24
2022/02/07 11:14:58;;;;;;;14.23;4.07;;;;;;;5.42;77.42;100788.09;5029900;28;20013;-24
2022/02/07 11:20:32;;;;;;;9.45;3.70;;;;;;;5.43;75.85;100792.44;5030732;28;20022;-23
2022/02/07 11:25:48;;;;;;;10.85;2.75;;;;;;;5.48;75.30;100811.72;5030695;28;20026;-23
2022/02/07 11:28:19;;;;;;;9.32;3.22;;;;;;;5.51;75.39;100808.25;5029042;28;20033;-23
2022/02/07 11:30:54;;;;;;;9.57;3.45;;;;;;;5.51;74.84;100819.59;5027611;28;20032;-23
2022/02/07 11:33:34;;;;;;;14.38;4.82;;;;;;;5.56;75.25;100816.16;5025135;28;20116;-23
2022/02/07 11:36:00;;;;;;;14.43;4.07;;;;;;;5.55;76.08;100828.38;5029141;28;20132;-23
2022/02/07 11:38:26;;;;;;;16.48;3.67;;;;;;;5.59;76.38;100821.44;5030223;28;20090;-23
2022/02/07 11:40:54;;;;;;;9.63;3.58;;;;;;;5.60;75.99;100818.00;5030364;28;20557;-23
2022/02/07 11:43:23;;;;;;;11.77;5.10;;;;;;;5.65;75.90;100826.78;5028576;28;20096;-23
2022/02/07 11:46:05;;;;;;;15.85;4.00;;;;;;;5.63;75.43;100825.84;5028915;28;20025;-25
2022/02/07 11:48:44;;;;;;;14.35;4.10;;;;;;;5.64;75.87;100831.13;5029777;28;20022;-24
2022/02/07 11:51:11;;;;;;;9.55;3.10;;;;;;;5.67;75.65;100825.03;5028595;28;20108;-24
2022/02/07 11:53:41;;;;;;;14.05;4.10;;;;;;;5.71;76.28;100832.09;5029015;28;20032;-24
2022/02/07 11:56:16;;;;;;;15.43;3.70;;;;;;;5.75;76.25;100831.28;5029979;28;20033;-23
2022/02/07 11:58:55;;;;;;;12.00;3.70;;;;;;;5.77;76.28;100847.88;5029402;28;20080;-23
2022/02/07 12:01:24;;;;;;;14.68;3.60;;;;;;;5.81;76.92;100840.06;5027887;28;20017;-24
2022/02/07 12:03:54;;;;;;;17.40;3.92;;;;;;;5.84;75.46;100858.44;5026133;28;20025;-23
2022/02/07 12:06:24;;;;;;;14.05;3.72;;;;;;;5.84;75.84;100847.97;5026995;28;20105;-21
2022/02/07 12:08:50;;;;;;;13.93;3.70;;;;;;;5.91;75.32;100858.50;5031275;28;21425;-23
2022/02/07 12:11:16;;;;;;;17.85;4.78;;;;;;;5.94;75.11;100868.19;5029055;28;20485;-24
2022/02/07 12:13:45;;;;;;;10.60;3.30;;;;;;;5.99;75.00;100879.56;5028997;28;20030;-24
2022/02/07 12:16:24;;;;;;;15.82;4.22;;;;;;;6.02;74.58;100868.25;5029458;28;20517;-24
2022/02/07 12:18:58;;;;;;;17.73;5.25;;;;;;;6.09;76.18;100879.72;5028450;28;20021;-23
2022/02/07 12:21:29;;;;;;;10.82;3.03;;;;;;;6.09;74.40;100898.94;5028753;28;20037;-24
2022/02/07 12:23:57;;;;;;;17.58;3.90;;;;;;;6.12;73.93;100874.53;5029648;28;20048;-24
2022/02/07 12:26:24;;;;;;;10.75;3.35;;;;;;;6.18;73.58;100885.09;5028068;28;20057;-23
2022/02/07 12:28:57;;;;;;;19.85;4.32;;;;;;;6.23;73.79;100896.50;5026092;28;20021;-23
2022/02/07 12:31:25;;;;;;;16.73;3.88;;;;;;;6.24;74.11;100885.16;5026944;28;20032;-23
2022/02/07 12:34:15;;;;;;;14.93;4.15;;;;;;;6.27;74.83;100895.66;5026598;28;20029;-24
2022/02/07 12:36:41;;;;;;;8.55;3.30;;;;;;;6.29;74.18;100907.06;5028531;28;20057;-24
2022/02/07 12:39:13;;;;;;;17.55;4.22;;;;;;;6.21;74.48;100924.41;5029244;28;20436;-24
2022/02/07 12:41:39;;;;;;;17.27;3.53;;;;;;;6.23;76.39;100914.81;5028618;28;20018;-24
2022/02/07 12:44:07;;;;;;;12.27;4.13;;;;;;;6.25;76.45;100910.50;5027577;28;20018;-23
2022/02/07 12:46:34;;;;;;;12.68;4.63;;;;;;;6.29;76.65;100914.91;5026868;28;20021;-24
2022/02/07 12:49:04;;;;;;;10.30;3.97;;;;;;;6.25;75.87;100909.59;5029165;28;20029;-23
2022/02/07 12:51:53;;;;;;;12.65;3.97;;;;;;;6.31;75.71;100932.38;5028723;28;20029;-24
2022/02/07 12:54:21;;;;;;;11.65;3.40;;;;;;;6.33;74.91;100936.78;5026547;28;20474;-22
2022/02/07 12:56:48;;;;;;;10.85;3.85;;;;;;;6.35;72.78;100928.94;5029044;28;20057;-24
2022/02/07 12:59:15;;;;;;;12.30;3.72;;;;;;;6.35;71.40;100956.03;5028248;28;20061;-24
2022/02/07 13:01:46;;;;;;;14.52;3.70;;;;;;;6.33;71.64;100956.88;5027714;28;20061;-24
2022/02/07 13:04:12;;;;;;;;;;;;;;;6.29;71.22;100962.06;5030601;28;20017;-24
2022/02/07 13:06:43;;;;;;;17.58;3.17;;;;;;;6.25;71.37;100981.22;5027209;28;20324;-23
2022/02/07 13:09:19;;;;;;;;;;;;;;;6.14;72.78;100993.28;5029678;28;20045;-23
2022/02/07 13:12:00;;;;;;;10.50;2.03;;;;;;;6.11;73.38;101003.72;5026988;28;19913;-24
2022/02/07 13:14:27;;;;;;;10.80;2.95;;;;;;;6.09;72.85;101001.06;5028921;28;20030;-23
2022/02/07 13:16:53;;;;;;;10.75;3.28;;;;;;;6.09;73.52;100981.84;5027248;28;20025;-24
2022/02/07 13:19:21;;;;;;;5.85;2.28;;;;;;;6.11;74.00;100980.16;5027659;28;20053;-21
2022/02/07 13:21:53;;;;;;;6.13;1.70;;;;;;;6.11;74.25;100985.38;5026858;28;20018;-23
2022/02/07 13:24:26;;;;;;;6.53;2.45;;;;;;;6.18;74.58;100982.00;5024430;28;20021;-24
2022/02/07 13:26:55;;;;;;;10.05;4.25;;;;;;;6.23;75.16;100998.66;5026385;28;20095;-24
2022/02/07 13:29:26;;;;;;;23.20;13.40;;;;;;;6.28;74.25;100986.47;5028028;28;20273;-24
2022/02/07 13:32:05;;;;;;;28.10;17.23;;;;;;;6.32;74.46;100997.00;5028277;28;20460;-24
2022/02/07 13:34:34;;;;;;;19.23;12.85;;;;;;;6.35;73.69;100995.31;5027882;28;20041;-24
2022/02/07 13:37:14;;;;;;;12.70;7.47;;;;;;;6.35;72.72;100997.06;5025929;28;20014;-23
2022/02/07 13:40:13;;;;;;;11.40;5.63;;;;;;;6.39;73.85;101006.72;5027558;28;20021;-24
2022/02/07 13:42:47;;;;;;;5.75;3.22;;;;;;;6.45;72.66;101016.41;5025641;28;20028;-23
2022/02/07 13:45:23;;;;;;;10.27;4.47;;;;;;;6.48;72.15;101019.97;5024524;28;20029;-23
2022/02/07 13:47:51;;;;;;;13.07;7.13;;;;;;;6.49;71.81;101026.94;5026078;28;20021;-24
2022/02/07 13:50:31;;;;;;;24.67;15.70;;;;;;;6.55;72.27;101031.41;5026162;28;20029;-24
2022/02/07 13:52:59;;;;;;;21.48;17.42;;;;;;;6.61;71.79;101034.13;5021686;28;20054;-22
2022/02/07 13:55:35;;;;;;;15.18;8.98;;;;;;;6.65;71.25;101042.88;5026071;28;20476;-22
2022/02/07 13:58:05;;;;;;;11.70;6.05;;;;;;;6.71;71.68;101048.22;5026018;28;20021;-22
2022/02/07 14:00:41;;;;;;;7.15;4.88;;;;;;;6.74;72.94;101053.47;5025607;28;20505;-23